sensor_id;sensor_type;location;lat;lon;timestamp;P1;durP1;ratioP1;P2;durP2;ratioP2
1460;SDS011;724;49.910;12.530;2023-04-24T00:01:05;0.50;;;0.40;;
1460;SDS011;724;49.910;12.530;2023-04-24T00:03:32;0.50;;;0.40;;
1460;SDS011;724;49.910;12.530;2023-04-24T00:05:59;0.60;;;0.50;;
1460;SDS011;724;49.910;12.530;2023-04-24T00:08:27;0.40;;;0.30;;
1460;SDS011;724;49.910;12.530;2023-04-24T00:10:54;0.60;;;0.50;;
1460;SDS011;724;49.910;12.530;2023-04-24T00:13:21;0.70;;;0.60;;
1460;SDS011;724;49.910;12.530;2023-04-24T00:15:49;0.70;;;0.60;;
1460;SDS011;724;49.910;12.530;2023-04-24T00:18:15;0.80;;;0.70;;
1460;SDS011;724;49.910;12.530;2023-04-24T00:20:42;0.90;;;0.80;;
1460;SDS011;724;49.910;12.530;2023-04-24T00:23:09;0.88;;;0.77;;
1460;SDS011;724;49.910;12.530;2023-04-24T00:25:36;1.10;;;1.00;;
1460;SDS011;724;49.910;12.530;2023-04-24T00:28:03;0.90;;;0.80;;
1460;SDS011;724;49.910;12.530;2023-04-24T00:30:29;1.10;;;1.00;;
1460;SDS011;724;49.910;12.530;2023-04-24T00:32:58;1.13;;;1.02;;
1460;SDS011;724;49.910;12.530;2023-04-24T00:35:24;1.05;;;0.95;;
1460;SDS011;724;49.910;12.530;2023-04-24T00:37:51;0.90;;;0.80;;
1460;SDS011;724;49.910;12.530;2023-04-24T00:40:18;1.20;;;1.10;;
1460;SDS011;724;49.910;12.530;2023-04-24T00:42:45;1.40;;;1.30;;
1460;SDS011;724;49.910;12.530;2023-04-24T00:45:12;1.65;;;1.55;;
1460;SDS011;724;49.910;12.530;2023-04-24T00:47:39;1.80;;;1.70;;
1460;SDS011;724;49.910;12.530;2023-04-24T00:50:09;2.20;;;2.00;;
1460;SDS011;724;49.910;12.530;2023-04-24T00:52:36;1.90;;;1.80;;
1460;SDS011;724;49.910;12.530;2023-04-24T00:55:05;2.50;;;2.30;;
1460;SDS011;724;49.910;12.530;2023-04-24T00:57:33;3.30;;;3.10;;
1460;SDS011;724;49.910;12.530;2023-04-24T01:00:00;3.55;;;3.35;;
1460;SDS011;724;49.910;12.530;2023-04-24T01:02:30;3.63;;;3.42;;
1460;SDS011;724;49.910;12.530;2023-04-24T01:04:59;4.00;;;3.80;;
1460;SDS011;724;49.910;12.530;2023-04-24T01:07:28;4.05;;;3.85;;
1460;SDS011;724;49.910;12.530;2023-04-24T01:09:55;3.90;;;3.70;;
1460;SDS011;724;49.910;12.530;2023-04-24T01:12:22;3.80;;;3.60;;
1460;SDS011;724;49.910;12.530;2023-04-24T01:14:49;4.30;;;4.00;;
1460;SDS011;724;49.910;12.530;2023-04-24T01:17:16;4.60;;;4.30;;
1460;SDS011;724;49.910;12.530;2023-04-24T01:19:43;4.25;;;3.97;;
1460;SDS011;724;49.910;12.530;2023-04-24T01:22:12;4.10;;;3.90;;
1460;SDS011;724;49.910;12.530;2023-04-24T01:24:40;4.82;;;4.53;;
1460;SDS011;724;49.910;12.530;2023-04-24T01:27:07;4.90;;;4.60;;
1460;SDS011;724;49.910;12.530;2023-04-24T01:29:35;4.95;;;4.65;;
1460;SDS011;724;49.910;12.530;2023-04-24T01:32:02;5.15;;;4.85;;
1460;SDS011;724;49.910;12.530;2023-04-24T01:34:29;4.50;;;4.20;;
1460;SDS011;724;49.910;12.530;2023-04-24T01:36:56;4.65;;;4.35;;
1460;SDS011;724;49.910;12.530;2023-04-24T01:39:25;4.75;;;4.45;;
1460;SDS011;724;49.910;12.530;2023-04-24T01:41:53;5.00;;;4.70;;
1460;SDS011;724;49.910;12.530;2023-04-24T01:44:20;5.10;;;4.80;;
1460;SDS011;724;49.910;12.530;2023-04-24T01:46:47;4.82;;;4.53;;
1460;SDS011;724;49.910;12.530;2023-04-24T01:49:14;4.43;;;4.13;;
1460;SDS011;724;49.910;12.530;2023-04-24T01:51:41;4.10;;;3.90;;
1460;SDS011;724;49.910;12.530;2023-04-24T01:54:08;4.30;;;4.00;;
1460;SDS011;724;49.910;12.530;2023-04-24T01:56:36;4.60;;;4.30;;
1460;SDS011;724;49.910;12.530;2023-04-24T01:59:05;4.40;;;4.10;;
1460;SDS011;724;49.910;12.530;2023-04-24T02:01:33;3.90;;;3.70;;
1460;SDS011;724;49.910;12.530;2023-04-24T02:04:02;3.10;;;2.90;;
1460;SDS011;724;49.910;12.530;2023-04-24T02:06:28;2.50;;;2.30;;
1460;SDS011;724;49.910;12.530;2023-04-24T02:08:56;2.40;;;2.20;;
1460;SDS011;724;49.910;12.530;2023-04-24T02:11:23;2.50;;;2.30;;
1460;SDS011;724;49.910;12.530;2023-04-24T02:13:51;1.40;;;1.30;;
1460;SDS011;724;49.910;12.530;2023-04-24T02:16:17;1.63;;;1.52;;
1460;SDS011;724;49.910;12.530;2023-04-24T02:18:44;1.40;;;1.30;;
1460;SDS011;724;49.910;12.530;2023-04-24T02:21:11;1.30;;;1.20;;
1460;SDS011;724;49.910;12.530;2023-04-24T02:23:38;1.30;;;1.20;;
1460;SDS011;724;49.910;12.530;2023-04-24T02:26:05;1.10;;;1.00;;
1460;SDS011;724;49.910;12.530;2023-04-24T02:28:32;1.05;;;0.95;;
1460;SDS011;724;49.910;12.530;2023-04-24T02:31:00;0.90;;;0.80;;
1460;SDS011;724;49.910;12.530;2023-04-24T02:33:28;0.88;;;0.77;;
1460;SDS011;724;49.910;12.530;2023-04-24T02:35:55;0.75;;;0.65;;
1460;SDS011;724;49.910;12.530;2023-04-24T02:38:22;1.00;;;0.90;;
1460;SDS011;724;49.910;12.530;2023-04-24T02:40:48;0.90;;;0.80;;
1460;SDS011;724;49.910;12.530;2023-04-24T02:43:15;1.10;;;1.00;;
1460;SDS011;724;49.910;12.530;2023-04-24T02:45:42;0.80;;;0.70;;
1460;SDS011;724;49.910;12.530;2023-04-24T02:48:10;0.80;;;0.70;;
1460;SDS011;724;49.910;12.530;2023-04-24T02:50:36;0.70;;;0.60;;
1460;SDS011;724;49.910;12.530;2023-04-24T02:53:03;0.45;;;0.35;;
1460;SDS011;724;49.910;12.530;2023-04-24T02:55:30;0.60;;;0.50;;
1460;SDS011;724;49.910;12.530;2023-04-24T02:57:57;0.50;;;0.40;;
1460;SDS011;724;49.910;12.530;2023-04-24T03:00:24;0.40;;;0.30;;
1460;SDS011;724;49.910;12.530;2023-04-24T03:02:50;0.40;;;0.30;;
1460;SDS011;724;49.910;12.530;2023-04-24T03:05:19;0.60;;;0.50;;
1460;SDS011;724;49.910;12.530;2023-04-24T03:07:46;0.40;;;0.30;;
1460;SDS011;724;49.910;12.530;2023-04-24T03:10:13;0.50;;;0.40;;
1460;SDS011;724;49.910;12.530;2023-04-24T03:12:40;0.47;;;0.38;;
1460;SDS011;724;49.910;12.530;2023-04-24T03:15:07;0.50;;;0.40;;
1460;SDS011;724;49.910;12.530;2023-04-24T03:17:35;0.60;;;0.50;;
1460;SDS011;724;49.910;12.530;2023-04-24T03:20:02;0.68;;;0.57;;
1460;SDS011;724;49.910;12.530;2023-04-24T03:22:31;0.40;;;0.30;;
1460;SDS011;724;49.910;12.530;2023-04-24T03:24:58;0.60;;;0.50;;
1460;SDS011;724;49.910;12.530;2023-04-24T03:27:25;0.60;;;0.50;;
1460;SDS011;724;49.910;12.530;2023-04-24T03:29:52;0.50;;;0.40;;
1460;SDS011;724;49.910;12.530;2023-04-24T03:32:20;0.40;;;0.30;;
1460;SDS011;724;49.910;12.530;2023-04-24T03:34:47;0.50;;;0.40;;
1460;SDS011;724;49.910;12.530;2023-04-24T03:37:14;0.50;;;0.40;;
1460;SDS011;724;49.910;12.530;2023-04-24T03:39:43;0.57;;;0.47;;
1460;SDS011;724;49.910;12.530;2023-04-24T03:42:10;0.55;;;0.45;;
1460;SDS011;724;49.910;12.530;2023-04-24T03:44:37;0.40;;;0.30;;
1460;SDS011;724;49.910;12.530;2023-04-24T03:47:03;0.40;;;0.30;;
1460;SDS011;724;49.910;12.530;2023-04-24T03:49:30;0.60;;;0.50;;
1460;SDS011;724;49.910;12.530;2023-04-24T03:51:57;0.60;;;0.50;;
1460;SDS011;724;49.910;12.530;2023-04-24T03:54:24;0.70;;;0.60;;
1460;SDS011;724;49.910;12.530;2023-04-24T03:56:52;0.60;;;0.50;;
1460;SDS011;724;49.910;12.530;2023-04-24T03:59:19;0.80;;;0.70;;
1460;SDS011;724;49.910;12.530;2023-04-24T04:01:46;0.85;;;0.75;;
1460;SDS011;724;49.910;12.530;2023-04-24T04:04:13;1.00;;;0.90;;
1460;SDS011;724;49.910;12.530;2023-04-24T04:06:39;1.00;;;0.90;;
1460;SDS011;724;49.910;12.530;2023-04-24T04:09:07;1.20;;;1.10;;
1460;SDS011;724;49.910;12.530;2023-04-24T04:11:34;0.70;;;0.60;;
1460;SDS011;724;49.910;12.530;2023-04-24T04:14:02;0.60;;;0.50;;
1460;SDS011;724;49.910;12.530;2023-04-24T04:16:30;0.40;;;0.30;;
1460;SDS011;724;49.910;12.530;2023-04-24T04:18:57;0.40;;;0.30;;
1460;SDS011;724;49.910;12.530;2023-04-24T04:21:24;0.40;;;0.30;;
1460;SDS011;724;49.910;12.530;2023-04-24T04:23:52;0.50;;;0.40;;
1460;SDS011;724;49.910;12.530;2023-04-24T04:26:19;0.40;;;0.30;;
1460;SDS011;724;49.910;12.530;2023-04-24T04:28:46;0.50;;;0.40;;
1460;SDS011;724;49.910;12.530;2023-04-24T04:31:15;0.80;;;0.70;;
1460;SDS011;724;49.910;12.530;2023-04-24T04:33:42;1.00;;;0.90;;
1460;SDS011;724;49.910;12.530;2023-04-24T04:36:08;0.90;;;0.80;;
1460;SDS011;724;49.910;12.530;2023-04-24T04:38:35;0.90;;;0.80;;
1460;SDS011;724;49.910;12.530;2023-04-24T04:41:02;0.70;;;0.60;;
1460;SDS011;724;49.910;12.530;2023-04-24T04:43:30;0.70;;;0.60;;
1460;SDS011;724;49.910;12.530;2023-04-24T04:45:57;0.80;;;0.70;;
1460;SDS011;724;49.910;12.530;2023-04-24T04:48:27;0.80;;;0.70;;
1460;SDS011;724;49.910;12.530;2023-04-24T04:50:53;0.68;;;0.57;;
1460;SDS011;724;49.910;12.530;2023-04-24T04:53:20;0.80;;;0.70;;
1460;SDS011;724;49.910;12.530;2023-04-24T04:55:47;0.90;;;0.80;;
1460;SDS011;724;49.910;12.530;2023-04-24T04:58:14;1.00;;;0.90;;
1460;SDS011;724;49.910;12.530;2023-04-24T05:00:41;1.25;;;1.15;;
1460;SDS011;724;49.910;12.530;2023-04-24T05:03:07;1.17;;;1.08;;
1460;SDS011;724;49.910;12.530;2023-04-24T05:05:35;0.90;;;0.80;;
1460;SDS011;724;49.910;12.530;2023-04-24T05:08:05;0.90;;;0.80;;
1460;SDS011;724;49.910;12.530;2023-04-24T05:10:32;0.90;;;0.80;;
1460;SDS011;724;49.910;12.530;2023-04-24T05:12:59;0.80;;;0.70;;
1460;SDS011;724;49.910;12.530;2023-04-24T05:15:25;1.00;;;0.90;;
1460;SDS011;724;49.910;12.530;2023-04-24T05:17:52;1.13;;;1.02;;
1460;SDS011;724;49.910;12.530;2023-04-24T05:20:19;1.20;;;1.10;;
1460;SDS011;724;49.910;12.530;2023-04-24T05:22:47;1.30;;;1.20;;
1460;SDS011;724;49.910;12.530;2023-04-24T05:25:14;1.60;;;1.50;;
1460;SDS011;724;49.910;12.530;2023-04-24T05:27:41;1.70;;;1.60;;
1460;SDS011;724;49.910;12.530;2023-04-24T05:30:08;1.90;;;1.80;;
1460;SDS011;724;49.910;12.530;2023-04-24T05:32:35;2.20;;;2.00;;
1460;SDS011;724;49.910;12.530;2023-04-24T05:35:02;2.40;;;2.20;;
1460;SDS011;724;49.910;12.530;2023-04-24T05:37:29;2.70;;;2.50;;
1460;SDS011;724;49.910;12.530;2023-04-24T05:39:57;3.00;;;2.80;;
1460;SDS011;724;49.910;12.530;2023-04-24T05:42:24;2.70;;;2.50;;
1460;SDS011;724;49.910;12.530;2023-04-24T05:44:51;2.70;;;2.50;;
1460;SDS011;724;49.910;12.530;2023-04-24T05:47:19;2.42;;;2.22;;
1460;SDS011;724;49.910;12.530;2023-04-24T05:49:46;2.45;;;2.25;;
1460;SDS011;724;49.910;12.530;2023-04-24T05:52:13;2.22;;;2.03;;
1460;SDS011;724;49.910;12.530;2023-04-24T05:54:40;2.35;;;2.15;;
1460;SDS011;724;49.910;12.530;2023-04-24T05:57:09;2.38;;;2.17;;
1460;SDS011;724;49.910;12.530;2023-04-24T05:59:36;1.80;;;1.70;;
1460;SDS011;724;49.910;12.530;2023-04-24T06:02:03;1.40;;;1.30;;
1460;SDS011;724;49.910;12.530;2023-04-24T06:04:31;1.20;;;1.10;;
1460;SDS011;724;49.910;12.530;2023-04-24T06:06:58;1.20;;;1.10;;
1460;SDS011;724;49.910;12.530;2023-04-24T06:09:25;1.40;;;1.30;;
1460;SDS011;724;49.910;12.530;2023-04-24T06:11:52;1.40;;;1.30;;
1460;SDS011;724;49.910;12.530;2023-04-24T06:14:21;1.30;;;1.20;;
1460;SDS011;724;49.910;12.530;2023-04-24T06:16:47;1.40;;;1.30;;
1460;SDS011;724;49.910;12.530;2023-04-24T06:19:14;1.40;;;1.30;;
1460;SDS011;724;49.910;12.530;2023-04-24T06:21:41;1.30;;;1.20;;
1460;SDS011;724;49.910;12.530;2023-04-24T06:24:08;1.20;;;1.10;;
1460;SDS011;724;49.910;12.530;2023-04-24T06:26:35;1.30;;;1.20;;
1460;SDS011;724;49.910;12.530;2023-04-24T06:29:02;1.27;;;1.17;;
1460;SDS011;724;49.910;12.530;2023-04-24T06:31:31;1.15;;;1.05;;
1460;SDS011;724;49.910;12.530;2023-04-24T06:34:01;0.90;;;0.80;;
1460;SDS011;724;49.910;12.530;2023-04-24T06:36:28;0.70;;;0.60;;
1460;SDS011;724;49.910;12.530;2023-04-24T06:38:56;0.70;;;0.60;;
1460;SDS011;724;49.910;12.530;2023-04-24T06:41:23;0.60;;;0.50;;
1460;SDS011;724;49.910;12.530;2023-04-24T06:43:50;0.63;;;0.52;;
1460;SDS011;724;49.910;12.530;2023-04-24T06:46:17;0.60;;;0.50;;
1460;SDS011;724;49.910;12.530;2023-04-24T06:48:45;0.80;;;0.70;;
1460;SDS011;724;49.910;12.530;2023-04-24T06:51:12;0.90;;;0.80;;
1460;SDS011;724;49.910;12.530;2023-04-24T06:53:38;0.80;;;0.70;;
1460;SDS011;724;49.910;12.530;2023-04-24T06:56:05;0.70;;;0.60;;
1460;SDS011;724;49.910;12.530;2023-04-24T06:58:32;0.90;;;0.80;;
1460;SDS011;724;49.910;12.530;2023-04-24T07:00:59;1.00;;;0.90;;
1460;SDS011;724;49.910;12.530;2023-04-24T07:03:26;1.20;;;1.10;;
1460;SDS011;724;49.910;12.530;2023-04-24T07:05:54;1.63;;;1.52;;
1460;SDS011;724;49.910;12.530;2023-04-24T07:08:21;1.60;;;1.50;;
1460;SDS011;724;49.910;12.530;2023-04-24T07:10:48;2.00;;;1.90;;
1460;SDS011;724;49.910;12.530;2023-04-24T07:13:15;2.40;;;2.20;;
1460;SDS011;724;49.910;12.530;2023-04-24T07:15:42;2.60;;;2.40;;
1460;SDS011;724;49.910;12.530;2023-04-24T07:18:09;2.67;;;2.47;;
1460;SDS011;724;49.910;12.530;2023-04-24T07:20:36;2.70;;;2.50;;
1460;SDS011;724;49.910;12.530;2023-04-24T07:23:04;2.80;;;2.60;;
1460;SDS011;724;49.910;12.530;2023-04-24T07:25:31;2.85;;;2.65;;
1460;SDS011;724;49.910;12.530;2023-04-24T07:27:58;2.90;;;2.70;;
1460;SDS011;724;49.910;12.530;2023-04-24T07:30:25;3.30;;;3.10;;
1460;SDS011;724;49.910;12.530;2023-04-24T07:32:53;3.90;;;3.70;;
1460;SDS011;724;49.910;12.530;2023-04-24T07:35:20;4.60;;;4.30;;
1460;SDS011;724;49.910;12.530;2023-04-24T07:37:47;4.70;;;4.40;;
1460;SDS011;724;49.910;12.530;2023-04-24T07:40:15;6.90;;;6.50;;
1460;SDS011;724;49.910;12.530;2023-04-24T07:42:42;7.70;;;7.30;;
1460;SDS011;724;49.910;12.530;2023-04-24T07:45:09;9.00;;;8.50;;
1460;SDS011;724;49.910;12.530;2023-04-24T07:47:36;10.60;;;10.00;;
1460;SDS011;724;49.910;12.530;2023-04-24T07:50:05;11.57;;;10.98;;
1460;SDS011;724;49.910;12.530;2023-04-24T07:52:32;11.60;;;11.00;;
1460;SDS011;724;49.910;12.530;2023-04-24T07:54:59;11.63;;;11.02;;
1460;SDS011;724;49.910;12.530;2023-04-24T07:57:28;11.40;;;10.80;;
1460;SDS011;724;49.910;12.530;2023-04-24T07:59:55;11.50;;;10.90;;
1460;SDS011;724;49.910;12.530;2023-04-24T08:02:22;11.70;;;11.10;;
1460;SDS011;724;49.910;12.530;2023-04-24T08:04:51;11.10;;;10.50;;
1460;SDS011;724;49.910;12.530;2023-04-24T08:07:18;11.00;;;10.40;;
1460;SDS011;724;49.910;12.530;2023-04-24T08:09:45;11.27;;;10.68;;
1460;SDS011;724;49.910;12.530;2023-04-24T08:12:12;12.20;;;11.60;;
1460;SDS011;724;49.910;12.530;2023-04-24T08:14:40;12.35;;;11.75;;
1460;SDS011;724;49.910;12.530;2023-04-24T08:17:07;12.50;;;11.90;;
1460;SDS011;724;49.910;12.530;2023-04-24T08:19:34;13.10;;;12.40;;
1460;SDS011;724;49.910;12.530;2023-04-24T08:22:01;12.80;;;12.10;;
1460;SDS011;724;49.910;12.530;2023-04-24T08:24:29;13.10;;;12.40;;
1460;SDS011;724;49.910;12.530;2023-04-24T08:26:55;12.10;;;11.50;;
1460;SDS011;724;49.910;12.530;2023-04-24T08:29:23;11.65;;;11.05;;
1460;SDS011;724;49.910;12.530;2023-04-24T08:31:51;10.40;;;9.90;;
1460;SDS011;724;49.910;12.530;2023-04-24T08:34:19;9.00;;;8.50;;
1460;SDS011;724;49.910;12.530;2023-04-24T08:36:46;8.90;;;8.40;;
1460;SDS011;724;49.910;12.530;2023-04-24T08:39:13;7.80;;;7.40;;
1460;SDS011;724;49.910;12.530;2023-04-24T08:41:41;7.10;;;6.70;;
1460;SDS011;724;49.910;12.530;2023-04-24T08:44:10;6.55;;;6.15;;
1460;SDS011;724;49.910;12.530;2023-04-24T08:46:39;5.97;;;5.68;;
1460;SDS011;724;49.910;12.530;2023-04-24T08:49:08;5.40;;;5.10;;
1460;SDS011;724;49.910;12.530;2023-04-24T08:51:36;4.70;;;4.40;;
1460;SDS011;724;49.910;12.530;2023-04-24T08:54:03;4.32;;;4.03;;
1460;SDS011;724;49.910;12.530;2023-04-24T08:56:32;4.70;;;4.40;;
1460;SDS011;724;49.910;12.530;2023-04-24T08:59:02;5.03;;;4.72;;
1460;SDS011;724;49.910;12.530;2023-04-24T09:01:30;5.70;;;5.40;;
1460;SDS011;724;49.910;12.530;2023-04-24T09:04:00;6.20;;;5.90;;
1460;SDS011;724;49.910;12.530;2023-04-24T09:06:29;8.00;;;7.60;;
1460;SDS011;724;49.910;12.530;2023-04-24T09:08:57;9.50;;;9.00;;
1460;SDS011;724;49.910;12.530;2023-04-24T09:11:29;10.20;;;9.70;;
1460;SDS011;724;49.910;12.530;2023-04-24T09:13:57;11.18;;;10.57;;
1460;SDS011;724;49.910;12.530;2023-04-24T09:16:24;14.10;;;13.40;;
1460;SDS011;724;49.910;12.530;2023-04-24T09:18:52;13.77;;;13.07;;
1460;SDS011;724;49.910;12.530;2023-04-24T09:21:20;13.90;;;13.20;;
1460;SDS011;724;49.910;12.530;2023-04-24T09:23:58;13.70;;;13.00;;
1460;SDS011;724;49.910;12.530;2023-04-24T09:26:26;14.73;;;13.97;;
1460;SDS011;724;49.910;12.530;2023-04-24T09:28:57;14.80;;;14.00;;
1460;SDS011;724;49.910;12.530;2023-04-24T09:31:26;14.43;;;13.73;;
1460;SDS011;724;49.910;12.530;2023-04-24T09:33:53;13.77;;;13.07;;
1460;SDS011;724;49.910;12.530;2023-04-24T09:36:26;14.40;;;13.70;;
1460;SDS011;724;49.910;12.530;2023-04-24T09:38:55;14.60;;;13.90;;
1460;SDS011;724;49.910;12.530;2023-04-24T09:41:26;15.40;;;14.60;;
1460;SDS011;724;49.910;12.530;2023-04-24T09:43:54;15.20;;;14.40;;
1460;SDS011;724;49.910;12.530;2023-04-24T09:46:28;15.10;;;14.30;;
1460;SDS011;724;49.910;12.530;2023-04-24T09:48:56;15.37;;;14.57;;
1460;SDS011;724;49.910;12.530;2023-04-24T09:51:33;15.80;;;15.00;;
1460;SDS011;724;49.910;12.530;2023-04-24T09:54:02;15.73;;;14.93;;
1460;SDS011;724;49.910;12.530;2023-04-24T09:56:32;15.40;;;14.60;;
1460;SDS011;724;49.910;12.530;2023-04-24T09:59:06;15.30;;;14.50;;
1460;SDS011;724;49.910;12.530;2023-04-24T10:01:33;14.30;;;13.60;;
1460;SDS011;724;49.910;12.530;2023-04-24T10:04:01;14.50;;;13.80;;
1460;SDS011;724;49.910;12.530;2023-04-24T10:06:32;13.90;;;13.20;;
1460;SDS011;724;49.910;12.530;2023-04-24T10:08:59;14.30;;;13.60;;
1460;SDS011;724;49.910;12.530;2023-04-24T10:11:28;15.13;;;14.32;;
1460;SDS011;724;49.910;12.530;2023-04-24T10:13:55;15.10;;;14.30;;
1460;SDS011;724;49.910;12.530;2023-04-24T10:16:23;16.20;;;15.40;;
1460;SDS011;724;49.910;12.530;2023-04-24T10:18:52;17.10;;;16.20;;
1460;SDS011;724;49.910;12.530;2023-04-24T10:21:19;16.20;;;15.40;;
1460;SDS011;724;49.910;12.530;2023-04-24T10:23:46;15.50;;;14.70;;
1460;SDS011;724;49.910;12.530;2023-04-24T10:26:15;15.20;;;14.40;;
1460;SDS011;724;49.910;12.530;2023-04-24T10:28:46;15.10;;;14.30;;
1460;SDS011;724;49.910;12.530;2023-04-24T10:31:13;14.90;;;14.10;;
1460;SDS011;724;49.910;12.530;2023-04-24T10:33:41;14.20;;;13.50;;
1460;SDS011;724;49.910;12.530;2023-04-24T10:36:09;14.80;;;14.00;;
1460;SDS011;724;49.910;12.530;2023-04-24T10:38:38;15.30;;;14.50;;
1460;SDS011;724;49.910;12.530;2023-04-24T10:41:08;15.40;;;14.60;;
1460;SDS011;724;49.910;12.530;2023-04-24T10:43:40;15.70;;;14.90;;
1460;SDS011;724;49.910;12.530;2023-04-24T10:46:09;15.23;;;14.43;;
1460;SDS011;724;49.910;12.530;2023-04-24T10:48:41;15.90;;;15.10;;
1460;SDS011;724;49.910;12.530;2023-04-24T10:51:10;16.10;;;15.30;;
1460;SDS011;724;49.910;12.530;2023-04-24T10:53:38;15.50;;;14.70;;
1460;SDS011;724;49.910;12.530;2023-04-24T10:56:05;14.43;;;13.73;;
1460;SDS011;724;49.910;12.530;2023-04-24T10:58:38;15.77;;;14.97;;
1460;SDS011;724;49.910;12.530;2023-04-24T11:01:13;16.27;;;15.47;;
1460;SDS011;724;49.910;12.530;2023-04-24T11:03:53;16.00;;;15.20;;
1460;SDS011;724;49.910;12.530;2023-04-24T11:06:28;15.70;;;14.90;;
1460;SDS011;724;49.910;12.530;2023-04-24T11:08:59;16.23;;;15.43;;
1460;SDS011;724;49.910;12.530;2023-04-24T11:11:29;15.60;;;14.80;;
1460;SDS011;724;49.910;12.530;2023-04-24T11:14:03;15.48;;;14.68;;
1460;SDS011;724;49.910;12.530;2023-04-24T11:16:33;15.30;;;14.50;;
1460;SDS011;724;49.910;12.530;2023-04-24T11:19:04;15.27;;;14.47;;
1460;SDS011;724;49.910;12.530;2023-04-24T11:21:36;16.50;;;15.70;;
1460;SDS011;724;49.910;12.530;2023-04-24T11:24:22;16.08;;;15.27;;
1460;SDS011;724;49.910;12.530;2023-04-24T11:27:06;15.07;;;14.27;;
1460;SDS011;724;49.910;12.530;2023-04-24T11:29:40;15.43;;;14.63;;
1460;SDS011;724;49.910;12.530;2023-04-24T11:32:16;14.90;;;14.10;;
1460;SDS011;724;49.910;12.530;2023-04-24T11:34:45;15.00;;;14.20;;
1460;SDS011;724;49.910;12.530;2023-04-24T11:37:13;15.20;;;14.40;;
1460;SDS011;724;49.910;12.530;2023-04-24T11:39:40;15.85;;;15.05;;
1460;SDS011;724;49.910;12.530;2023-04-24T11:42:07;16.10;;;15.30;;
1460;SDS011;724;49.910;12.530;2023-04-24T11:44:34;16.17;;;15.38;;
1460;SDS011;724;49.910;12.530;2023-04-24T11:47:02;15.80;;;15.00;;
1460;SDS011;724;49.910;12.530;2023-04-24T11:49:30;15.50;;;14.70;;
1460;SDS011;724;49.910;12.530;2023-04-24T11:51:57;15.80;;;15.00;;
1460;SDS011;724;49.910;12.530;2023-04-24T11:54:25;15.20;;;14.40;;
1460;SDS011;724;49.910;12.530;2023-04-24T11:56:52;15.30;;;14.50;;
1460;SDS011;724;49.910;12.530;2023-04-24T11:59:19;15.27;;;14.48;;
1460;SDS011;724;49.910;12.530;2023-04-24T12:01:46;15.40;;;14.60;;
1460;SDS011;724;49.910;12.530;2023-04-24T12:04:14;15.10;;;14.30;;
1460;SDS011;724;49.910;12.530;2023-04-24T12:09:27;15.40;;;14.60;;
1460;SDS011;724;49.910;12.530;2023-04-24T12:11:54;15.68;;;14.88;;
1460;SDS011;724;49.910;12.530;2023-04-24T12:14:22;15.70;;;14.90;;
1460;SDS011;724;49.910;12.530;2023-04-24T12:16:50;16.00;;;15.20;;
1460;SDS011;724;49.910;12.530;2023-04-24T12:19:18;15.50;;;14.70;;
1460;SDS011;724;49.910;12.530;2023-04-24T12:21:58;15.60;;;14.80;;
1460;SDS011;724;49.910;12.530;2023-04-24T12:24:27;14.60;;;13.90;;
1460;SDS011;724;49.910;12.530;2023-04-24T12:26:54;15.10;;;14.30;;
1460;SDS011;724;49.910;12.530;2023-04-24T12:29:21;15.13;;;14.32;;
1460;SDS011;724;49.910;12.530;2023-04-24T12:31:48;15.30;;;14.50;;
1460;SDS011;724;49.910;12.530;2023-04-24T12:34:18;15.05;;;14.25;;
1460;SDS011;724;49.910;12.530;2023-04-24T12:36:46;15.32;;;14.52;;
1460;SDS011;724;49.910;12.530;2023-04-24T12:39:18;15.38;;;14.57;;
1460;SDS011;724;49.910;12.530;2023-04-24T12:41:50;15.10;;;14.30;;
1460;SDS011;724;49.910;12.530;2023-04-24T12:44:28;14.98;;;14.18;;
1460;SDS011;724;49.910;12.530;2023-04-24T12:46:55;15.10;;;14.30;;
1460;SDS011;724;49.910;12.530;2023-04-24T12:49:22;14.50;;;13.80;;
1460;SDS011;724;49.910;12.530;2023-04-24T12:51:49;14.50;;;13.80;;
1460;SDS011;724;49.910;12.530;2023-04-24T12:54:15;15.20;;;14.40;;
1460;SDS011;724;49.910;12.530;2023-04-24T12:56:43;15.60;;;14.80;;
1460;SDS011;724;49.910;12.530;2023-04-24T12:59:10;14.80;;;14.00;;
1460;SDS011;724;49.910;12.530;2023-04-24T13:01:37;14.30;;;13.60;;
1460;SDS011;724;49.910;12.530;2023-04-24T13:04:04;15.30;;;14.50;;
1460;SDS011;724;49.910;12.530;2023-04-24T13:06:31;14.90;;;14.10;;
1460;SDS011;724;49.910;12.530;2023-04-24T13:08:58;15.57;;;14.77;;
1460;SDS011;724;49.910;12.530;2023-04-24T13:11:27;15.50;;;14.70;;
1460;SDS011;724;49.910;12.530;2023-04-24T13:13:54;16.10;;;15.30;;
1460;SDS011;724;49.910;12.530;2023-04-24T13:16:21;15.40;;;14.60;;
1460;SDS011;724;49.910;12.530;2023-04-24T13:18:48;16.10;;;15.30;;
1460;SDS011;724;49.910;12.530;2023-04-24T13:21:15;16.30;;;15.50;;
1460;SDS011;724;49.910;12.530;2023-04-24T13:23:44;15.30;;;14.50;;
1460;SDS011;724;49.910;12.530;2023-04-24T13:26:11;15.50;;;14.70;;
1460;SDS011;724;49.910;12.530;2023-04-24T13:28:39;15.50;;;14.70;;
1460;SDS011;724;49.910;12.530;2023-04-24T13:31:06;15.77;;;14.98;;
1460;SDS011;724;49.910;12.530;2023-04-24T13:33:33;15.93;;;15.13;;
1460;SDS011;724;49.910;12.530;2023-04-24T13:36:00;15.90;;;15.10;;
1460;SDS011;724;49.910;12.530;2023-04-24T13:38:27;15.82;;;15.02;;
1460;SDS011;724;49.910;12.530;2023-04-24T13:40:53;15.50;;;14.70;;
1460;SDS011;724;49.910;12.530;2023-04-24T13:43:21;15.73;;;14.93;;
1460;SDS011;724;49.910;12.530;2023-04-24T13:45:49;15.50;;;14.70;;
1460;SDS011;724;49.910;12.530;2023-04-24T13:48:15;15.60;;;14.80;;
1460;SDS011;724;49.910;12.530;2023-04-24T13:50:43;15.38;;;14.57;;
1460;SDS011;724;49.910;12.530;2023-04-24T13:53:13;15.90;;;15.10;;
1460;SDS011;724;49.910;12.530;2023-04-24T13:55:40;16.58;;;15.77;;
1460;SDS011;724;49.910;12.530;2023-04-24T13:58:06;16.40;;;15.60;;
1460;SDS011;724;49.910;12.530;2023-04-24T14:00:33;16.00;;;15.20;;
1460;SDS011;724;49.910;12.530;2023-04-24T14:03:01;16.13;;;15.32;;
1460;SDS011;724;49.910;12.530;2023-04-24T14:05:28;15.93;;;15.13;;
1460;SDS011;724;49.910;12.530;2023-04-24T14:07:55;16.00;;;15.20;;
1460;SDS011;724;49.910;12.530;2023-04-24T14:10:22;15.60;;;14.80;;
1460;SDS011;724;49.910;12.530;2023-04-24T14:12:48;15.60;;;14.80;;
1460;SDS011;724;49.910;12.530;2023-04-24T14:15:17;15.50;;;14.70;;
1460;SDS011;724;49.910;12.530;2023-04-24T14:17:44;15.52;;;14.73;;
1460;SDS011;724;49.910;12.530;2023-04-24T14:20:12;15.20;;;14.40;;
1460;SDS011;724;49.910;12.530;2023-04-24T14:22:39;15.55;;;14.75;;
1460;SDS011;724;49.910;12.530;2023-04-24T14:25:06;15.43;;;14.63;;
1460;SDS011;724;49.910;12.530;2023-04-24T14:27:33;15.07;;;14.27;;
1460;SDS011;724;49.910;12.530;2023-04-24T14:30:00;15.02;;;14.23;;
1460;SDS011;724;49.910;12.530;2023-04-24T14:32:28;14.98;;;14.18;;
1460;SDS011;724;49.910;12.530;2023-04-24T14:34:54;14.85;;;14.05;;
1460;SDS011;724;49.910;12.530;2023-04-24T14:37:23;15.02;;;14.23;;
1460;SDS011;724;49.910;12.530;2023-04-24T14:39:49;15.00;;;14.20;;
1460;SDS011;724;49.910;12.530;2023-04-24T14:42:16;15.00;;;14.20;;
1460;SDS011;724;49.910;12.530;2023-04-24T14:44:43;15.30;;;14.50;;
1460;SDS011;724;49.910;12.530;2023-04-24T14:47:10;15.35;;;14.55;;
1460;SDS011;724;49.910;12.530;2023-04-24T14:49:37;15.20;;;14.40;;
1460;SDS011;724;49.910;12.530;2023-04-24T14:52:04;15.20;;;14.40;;
1460;SDS011;724;49.910;12.530;2023-04-24T14:54:32;15.50;;;14.70;;
1460;SDS011;724;49.910;12.530;2023-04-24T14:56:59;15.20;;;14.40;;
1460;SDS011;724;49.910;12.530;2023-04-24T14:59:26;15.35;;;14.55;;
1460;SDS011;724;49.910;12.530;2023-04-24T15:01:53;15.80;;;15.00;;
1460;SDS011;724;49.910;12.530;2023-04-24T15:04:22;15.90;;;15.10;;
1460;SDS011;724;49.910;12.530;2023-04-24T15:06:50;16.10;;;15.30;;
1460;SDS011;724;49.910;12.530;2023-04-24T15:09:18;15.85;;;15.05;;